sensor_id;sensor_type;location;lat;lon;timestamp;pressure;altitude;pressure_sealevel;temperature;humidity
46955;BME280;32708;51.212;6.788;2023-07-13T00:01:51;100852.94;;;24.77;49.61
46955;BME280;32708;51.212;6.788;2023-07-13T00:04:22;100851.00;;;24.70;49.74
46955;BME280;32708;51.212;6.788;2023-07-13T00:06:52;100856.53;;;24.77;50.25
46955;BME280;32708;51.212;6.788;2023-07-13T00:09:20;100857.75;;;24.76;49.65
46955;BME280;32708;51.212;6.788;2023-07-13T00:11:53;100850.56;;;24.75;49.23
46955;BME280;32708;51.212;6.788;2023-07-13T00:14:20;100861.38;;;24.73;49.92
46955;BME280;32708;51.212;6.788;2023-07-13T00:16:47;100853.38;;;24.75;50.23
46955;BME280;32708;51.212;6.788;2023-07-13T00:19:14;100853.88;;;24.63;50.66
46955;BME280;32708;51.212;6.788;2023-07-13T00:21:42;100857.22;;;24.88;50.13
46955;BME280;32708;51.212;6.788;2023-07-13T00:24:13;100852.63;;;24.67;51.09
46955;BME280;32708;51.212;6.788;2023-07-13T00:26:40;100861.44;;;24.66;50.80
46955;BME280;32708;51.212;6.788;2023-07-13T00:29:06;100859.06;;;24.61;50.82
46955;BME280;32708;51.212;6.788;2023-07-13T00:31:36;100859.06;;;24.61;51.28
46955;BME280;32708;51.212;6.788;2023-07-13T00:34:04;100862.41;;;24.41;51.40
46955;BME280;32708;51.212;6.788;2023-07-13T00:36:31;100862.88;;;24.36;51.58
46955;BME280;32708;51.212;6.788;2023-07-13T00:38:58;100853.63;;;24.47;51.59
46955;BME280;32708;51.212;6.788;2023-07-13T00:41:24;100856.69;;;24.59;51.22
46955;BME280;32708;51.212;6.788;2023-07-13T00:43:50;100859.25;;;24.39;51.51
46955;BME280;32708;51.212;6.788;2023-07-13T00:46:23;100866.47;;;24.30;51.83
46955;BME280;32708;51.212;6.788;2023-07-13T00:48:53;100859.75;;;24.20;53.87
46955;BME280;32708;51.212;6.788;2023-07-13T00:51:28;100856.25;;;24.09;53.37
46955;BME280;32708;51.212;6.788;2023-07-13T00:54:00;100861.88;;;24.02;53.93
46955;BME280;32708;51.212;6.788;2023-07-13T00:56:30;100863.44;;;24.10;53.71
46955;BME280;32708;51.212;6.788;2023-07-13T00:59:02;100867.47;;;24.02;54.12
46955;BME280;32708;51.212;6.788;2023-07-13T01:01:30;100864.25;;;24.03;54.08
46955;BME280;32708;51.212;6.788;2023-07-13T01:03:57;100860.56;;;23.40;56.35
46955;BME280;32708;51.212;6.788;2023-07-13T01:06:25;100854.88;;;23.69;55.81
46955;BME280;32708;51.212;6.788;2023-07-13T01:08:51;100856.25;;;24.09;55.41
46955;BME280;32708;51.212;6.788;2023-07-13T01:11:21;100858.84;;;23.75;56.14
46955;BME280;32708;51.212;6.788;2023-07-13T01:13:49;100858.72;;;23.93;56.67
46955;BME280;32708;51.212;6.788;2023-07-13T01:16:28;100856.13;;;24.27;54.82
46955;BME280;32708;51.212;6.788;2023-07-13T01:18:56;100851.84;;;24.15;55.21
46955;BME280;32708;51.212;6.788;2023-07-13T01:21:31;100851.16;;;23.97;55.82
46955;BME280;32708;51.212;6.788;2023-07-13T01:23:59;100866.91;;;23.44;58.26
46955;BME280;32708;51.212;6.788;2023-07-13T01:26:25;100860.72;;;23.92;56.66
46955;BME280;32708;51.212;6.788;2023-07-13T01:28:53;100862.03;;;23.73;57.89
46955;BME280;32708;51.212;6.788;2023-07-13T01:31:19;100864.47;;;23.64;57.62
46955;BME280;32708;51.212;6.788;2023-07-13T01:33:45;100849.28;;;23.79;58.07
46955;BME280;32708;51.212;6.788;2023-07-13T01:36:12;100858.72;;;23.93;58.11
46955;BME280;32708;51.212;6.788;2023-07-13T01:38:38;100861.28;;;23.66;59.03
46955;BME280;32708;51.212;6.788;2023-07-13T01:41:04;100854.03;;;23.79;58.89
46955;BME280;32708;51.212;6.788;2023-07-13T01:43:30;100867.69;;;23.52;59.42
46955;BME280;32708;51.212;6.788;2023-07-13T01:45:56;100870.03;;;23.57;59.89
46955;BME280;32708;51.212;6.788;2023-07-13T01:48:22;100873.34;;;23.30;60.42
46955;BME280;32708;51.212;6.788;2023-07-13T01:50:49;100880.38;;;23.64;59.89
46955;BME280;32708;51.212;6.788;2023-07-13T01:53:15;100867.28;;;23.60;59.93
46955;BME280;32708;51.212;6.788;2023-07-13T01:55:41;100860.16;;;23.45;60.29
46955;BME280;32708;51.212;6.788;2023-07-13T01:58:08;100867.75;;;23.27;61.79
46955;BME280;32708;51.212;6.788;2023-07-13T02:00:34;100873.38;;;23.16;62.10
46955;BME280;32708;51.212;6.788;2023-07-13T02:03:02;100866.78;;;23.76;60.54
46955;BME280;32708;51.212;6.788;2023-07-13T02:05:28;100868.50;;;23.42;61.35
46955;BME280;32708;51.212;6.788;2023-07-13T02:07:54;100869.25;;;23.56;60.10
46955;BME280;32708;51.212;6.788;2023-07-13T02:10:20;100874.13;;;23.31;61.13
46955;BME280;32708;51.212;6.788;2023-07-13T02:12:49;100866.22;;;23.04;62.60
46955;BME280;32708;51.212;6.788;2023-07-13T02:15:17;100865.00;;;23.23;62.29
46955;BME280;32708;51.212;6.788;2023-07-13T02:17:43;100863.81;;;23.17;62.51
46955;BME280;32708;51.212;6.788;2023-07-13T02:20:10;100870.16;;;23.21;61.90
46955;BME280;32708;51.212;6.788;2023-07-13T02:22:36;100878.50;;;23.28;63.07
46955;BME280;32708;51.212;6.788;2023-07-13T02:25:02;100871.38;;;23.24;63.18
46955;BME280;32708;51.212;6.788;2023-07-13T02:27:29;100875.75;;;23.14;63.21
46955;BME280;32708;51.212;6.788;2023-07-13T02:29:55;100882.78;;;23.54;62.37
46955;BME280;32708;51.212;6.788;2023-07-13T02:32:22;100881.25;;;23.43;63.26
46955;BME280;32708;51.212;6.788;2023-07-13T02:34:48;100885.19;;;23.49;62.70
46955;BME280;32708;51.212;6.788;2023-07-13T02:37:14;100882.03;;;23.47;62.72
46955;BME280;32708;51.212;6.788;2023-07-13T02:39:40;100881.28;;;23.21;63.67
46955;BME280;32708;51.212;6.788;2023-07-13T02:42:07;100879.66;;;23.42;63.11
46955;BME280;32708;51.212;6.788;2023-07-13T02:44:33;100882.53;;;23.06;65.68
46955;BME280;32708;51.212;6.788;2023-07-13T02:46:59;100887.72;;;23.08;65.49
46955;BME280;32708;51.212;6.788;2023-07-13T02:49:25;100883.75;;;23.09;65.48
46955;BME280;32708;51.212;6.788;2023-07-13T02:51:51;100876.59;;;22.97;66.24
46955;BME280;32708;51.212;6.788;2023-07-13T02:54:17;100885.75;;;22.94;66.66
46955;BME280;32708;51.212;6.788;2023-07-13T02:56:43;100885.34;;;22.74;66.98
46955;BME280;32708;51.212;6.788;2023-07-13T02:59:09;100889.25;;;23.30;65.11
46955;BME280;32708;51.212;6.788;2023-07-13T03:01:36;100884.94;;;22.97;66.15
46955;BME280;32708;51.212;6.788;2023-07-13T03:04:03;100888.16;;;22.88;67.71
46955;BME280;32708;51.212;6.788;2023-07-13T03:06:33;100895.28;;;22.68;68.86
46955;BME280;32708;51.212;6.788;2023-07-13T03:09:00;100889.31;;;23.09;67.37
46955;BME280;32708;51.212;6.788;2023-07-13T03:11:28;100882.16;;;23.04;67.59
46955;BME280;32708;51.212;6.788;2023-07-13T03:14:03;100891.34;;;22.87;68.47
46955;BME280;32708;51.212;6.788;2023-07-13T03:16:33;100894.91;;;22.87;68.81
46955;BME280;32708;51.212;6.788;2023-07-13T03:18:59;100894.88;;;22.98;67.52
46955;BME280;32708;51.212;6.788;2023-07-13T03:21:25;100898.06;;;23.03;68.00
46955;BME280;32708;51.212;6.788;2023-07-13T03:23:52;100898.03;;;23.07;67.56
46955;BME280;32708;51.212;6.788;2023-07-13T03:26:20;100896.50;;;22.95;68.07
46955;BME280;32708;51.212;6.788;2023-07-13T03:28:48;100897.66;;;22.55;69.94
46955;BME280;32708;51.212;6.788;2023-07-13T03:31:25;100900.03;;;22.53;70.27
46955;BME280;32708;51.212;6.788;2023-07-13T03:33:52;100904.00;;;22.70;69.93
46955;BME280;32708;51.212;6.788;2023-07-13T03:36:25;100904.44;;;22.97;69.13
46955;BME280;32708;51.212;6.788;2023-07-13T03:38:59;100906.44;;;22.89;68.94
46955;BME280;32708;51.212;6.788;2023-07-13T03:41:37;100918.34;;;22.83;70.31
46955;BME280;32708;51.212;6.788;2023-07-13T03:44:04;100910.81;;;22.87;69.17
46955;BME280;32708;51.212;6.788;2023-07-13T03:46:31;100906.81;;;22.80;69.39
46955;BME280;32708;51.212;6.788;2023-07-13T03:48:59;100906.81;;;22.91;69.15
46955;BME280;32708;51.212;6.788;2023-07-13T03:51:26;100919.88;;;23.33;68.99
46955;BME280;32708;51.212;6.788;2023-07-13T03:53:52;100921.56;;;22.88;69.46
46955;BME280;32708;51.212;6.788;2023-07-13T03:56:19;100923.88;;;23.32;68.45
46955;BME280;32708;51.212;6.788;2023-07-13T03:58:48;100926.97;;;23.56;67.10
46955;BME280;32708;51.212;6.788;2023-07-13T04:01:20;100921.88;;;23.33;66.86
46955;BME280;32708;51.212;6.788;2023-07-13T04:03:47;100936.09;;;23.81;65.17
46955;BME280;32708;51.212;6.788;2023-07-13T04:06:27;100939.03;;;23.03;67.78
46955;BME280;32708;51.212;6.788;2023-07-13T04:08:59;100946.09;;;23.65;65.56
46955;BME280;32708;51.212;6.788;2023-07-13T04:11:29;100943.03;;;22.88;67.53
46955;BME280;32708;51.212;6.788;2023-07-13T04:13:56;100948.16;;;22.68;69.04
46955;BME280;32708;51.212;6.788;2023-07-13T04:16:22;100956.13;;;22.66;68.72
46955;BME280;32708;51.212;6.788;2023-07-13T04:18:50;100947.75;;;22.76;68.91
46955;BME280;32708;51.212;6.788;2023-07-13T04:21:16;100954.13;;;22.66;69.71
46955;BME280;32708;51.212;6.788;2023-07-13T04:23:43;100944.97;;;23.19;67.55
46955;BME280;32708;51.212;6.788;2023-07-13T04:26:09;100949.38;;;23.13;68.65
46955;BME280;32708;51.212;6.788;2023-07-13T04:28:36;100947.34;;;23.31;67.98
46955;BME280;32708;51.212;6.788;2023-07-13T04:31:02;100949.00;;;23.00;67.93
46955;BME280;32708;51.212;6.788;2023-07-13T04:33:29;100960.88;;;22.76;68.64
46955;BME280;32708;51.212;6.788;2023-07-13T04:35:56;100958.91;;;23.26;68.38
46955;BME280;32708;51.212;6.788;2023-07-13T04:38:27;100960.13;;;23.00;69.54
46955;BME280;32708;51.212;6.788;2023-07-13T04:41:00;100955.69;;;23.46;67.21
46955;BME280;32708;51.212;6.788;2023-07-13T04:43:29;100951.75;;;22.75;69.94
46955;BME280;32708;51.212;6.788;2023-07-13T04:45:55;100947.38;;;23.21;69.23
46955;BME280;32708;51.212;6.788;2023-07-13T04:48:22;100948.09;;;23.50;67.73
46955;BME280;32708;51.212;6.788;2023-07-13T04:50:56;100955.16;;;23.90;65.45
46955;BME280;32708;51.212;6.788;2023-07-13T04:53:23;100953.66;;;25.00;61.13
46955;BME280;32708;51.212;6.788;2023-07-13T04:55:49;100960.06;;;25.04;60.88
46955;BME280;32708;51.212;6.788;2023-07-13T04:58:16;100956.09;;;24.46;61.61
46955;BME280;32708;51.212;6.788;2023-07-13T05:00:42;100950.88;;;24.48;62.45
46955;BME280;32708;51.212;6.788;2023-07-13T05:03:08;100947.34;;;24.96;61.56
46955;BME280;32708;51.212;6.788;2023-07-13T05:05:35;100961.63;;;25.05;59.85
46955;BME280;32708;51.212;6.788;2023-07-13T05:08:01;100960.22;;;24.13;63.28
46955;BME280;32708;51.212;6.788;2023-07-13T05:10:28;100965.25;;;24.47;62.10
46955;BME280;32708;51.212;6.788;2023-07-13T05:12:54;100972.44;;;24.48;62.86
46955;BME280;32708;51.212;6.788;2023-07-13T05:15:22;100970.25;;;24.00;66.77
46955;BME280;32708;51.212;6.788;2023-07-13T05:17:49;100966.03;;;24.51;64.55
46955;BME280;32708;51.212;6.788;2023-07-13T05:20:18;100965.34;;;25.36;61.56
46955;BME280;32708;51.212;6.788;2023-07-13T05:22:45;100957.13;;;25.56;59.63
46955;BME280;32708;51.212;6.788;2023-07-13T05:25:13;100962.38;;;25.13;61.19
46955;BME280;32708;51.212;6.788;2023-07-13T05:27:40;100972.91;;;25.77;58.90
46955;BME280;32708;51.212;6.788;2023-07-13T05:30:07;100974.25;;;25.62;60.17
46955;BME280;32708;51.212;6.788;2023-07-13T05:32:36;100976.91;;;25.76;58.91
46955;BME280;32708;51.212;6.788;2023-07-13T05:35:02;100980.75;;;24.58;62.23
46955;BME280;32708;51.212;6.788;2023-07-13T05:37:29;100975.91;;;25.56;59.81
46955;BME280;32708;51.212;6.788;2023-07-13T05:39:55;100990.97;;;25.28;60.71
46955;BME280;32708;51.212;6.788;2023-07-13T05:42:21;100997.19;;;25.01;62.60
46955;BME280;32708;51.212;6.788;2023-07-13T05:44:47;100988.13;;;26.06;59.06
46955;BME280;32708;51.212;6.788;2023-07-13T05:47:13;100999.63;;;26.16;58.30
46955;BME280;32708;51.212;6.788;2023-07-13T05:49:41;100992.53;;;26.08;59.04
46955;BME280;32708;51.212;6.788;2023-07-13T05:52:07;101000.94;;;25.73;60.19
46955;BME280;32708;51.212;6.788;2023-07-13T05:54:33;100999.66;;;26.70;57.69
46955;BME280;32708;51.212;6.788;2023-07-13T05:56:59;101005.72;;;26.92;56.37
46955;BME280;32708;51.212;6.788;2023-07-13T05:59:26;101005.75;;;26.34;58.77
46955;BME280;32708;51.212;6.788;2023-07-13T06:01:52;101004.06;;;26.71;56.91
46955;BME280;32708;51.212;6.788;2023-07-13T06:04:19;101001.13;;;26.78;56.01
46955;BME280;32708;51.212;6.788;2023-07-13T06:06:46;101005.16;;;26.77;57.54
46955;BME280;32708;51.212;6.788;2023-07-13T06:09:12;101010.09;;;25.74;60.40
46955;BME280;32708;51.212;6.788;2023-07-13T06:11:38;101015.84;;;25.56;61.63
46955;BME280;32708;51.212;6.788;2023-07-13T06:14:04;101016.34;;;25.89;60.75
46955;BME280;32708;51.212;6.788;2023-07-13T06:16:30;101023.50;;;25.48;62.24
46955;BME280;32708;51.212;6.788;2023-07-13T06:18:56;101032.41;;;24.84;65.59
46955;BME280;32708;51.212;6.788;2023-07-13T06:21:23;101022.09;;;25.74;62.39
46955;BME280;32708;51.212;6.788;2023-07-13T06:23:51;101018.53;;;26.35;59.88
46955;BME280;32708;51.212;6.788;2023-07-13T06:26:19;101029.38;;;26.33;59.95
46955;BME280;32708;51.212;6.788;2023-07-13T06:28:46;101030.22;;;25.58;63.74
46955;BME280;32708;51.212;6.788;2023-07-13T06:31:14;101038.09;;;25.29;64.38
46955;BME280;32708;51.212;6.788;2023-07-13T06:33:41;101034.03;;;25.37;64.75
46955;BME280;32708;51.212;6.788;2023-07-13T06:36:08;101034.94;;;26.67;60.33
46955;BME280;32708;51.212;6.788;2023-07-13T06:38:35;101042.97;;;25.18;64.17
46955;BME280;32708;51.212;6.788;2023-07-13T06:41:03;101037.56;;;25.86;62.83
46955;BME280;32708;51.212;6.788;2023-07-13T06:43:30;101050.31;;;25.42;64.55
46955;BME280;32708;51.212;6.788;2023-07-13T06:45:57;101052.28;;;24.97;66.29
46955;BME280;32708;51.212;6.788;2023-07-13T06:48:24;101047.91;;;25.86;63.84
46955;BME280;32708;51.212;6.788;2023-07-13T06:50:50;101050.88;;;25.27;66.06
46955;BME280;32708;51.212;6.788;2023-07-13T06:53:20;101056.28;;;24.96;66.79
46955;BME280;32708;51.212;6.788;2023-07-13T06:55:47;101068.28;;;24.89;68.89
46955;BME280;32708;51.212;6.788;2023-07-13T06:58:17;101072.03;;;24.65;69.83
46955;BME280;32708;51.212;6.788;2023-07-13T07:00:44;101066.13;;;24.52;70.33
46955;BME280;32708;51.212;6.788;2023-07-13T07:03:10;101065.59;;;24.75;69.88
46955;BME280;32708;51.212;6.788;2023-07-13T07:05:36;101065.22;;;24.69;69.09
46955;BME280;32708;51.212;6.788;2023-07-13T07:08:02;101069.84;;;24.06;72.92
46955;BME280;32708;51.212;6.788;2023-07-13T07:10:30;101077.63;;;24.65;71.07
46955;BME280;32708;51.212;6.788;2023-07-13T07:12:57;101085.00;;;23.98;73.94
46955;BME280;32708;51.212;6.788;2023-07-13T07:15:23;101068.25;;;24.05;73.51
46955;BME280;32708;51.212;6.788;2023-07-13T07:17:50;101074.47;;;24.56;71.76
46955;BME280;32708;51.212;6.788;2023-07-13T07:20:16;101080.06;;;25.22;68.74
46955;BME280;32708;51.212;6.788;2023-07-13T07:22:42;101079.84;;;24.91;69.97
46955;BME280;32708;51.212;6.788;2023-07-13T07:25:08;101083.25;;;25.20;68.71
46955;BME280;32708;51.212;6.788;2023-07-13T07:27:35;101080.56;;;25.10;68.39
46955;BME280;32708;51.212;6.788;2023-07-13T07:30:01;101086.16;;;25.06;68.66
46955;BME280;32708;51.212;6.788;2023-07-13T07:32:29;101079.00;;;25.50;67.79
46955;BME280;32708;51.212;6.788;2023-07-13T07:34:59;101083.19;;;25.31;68.05
46955;BME280;32708;51.212;6.788;2023-07-13T07:37:25;101076.91;;;25.61;66.74
46955;BME280;32708;51.212;6.788;2023-07-13T07:39:52;101080.31;;;25.38;67.46
46955;BME280;32708;51.212;6.788;2023-07-13T07:42:18;101078.41;;;25.76;65.16
46955;BME280;32708;51.212;6.788;2023-07-13T07:44:44;101075.91;;;25.86;64.89
46955;BME280;32708;51.212;6.788;2023-07-13T07:47:10;101074.41;;;26.12;64.04
46955;BME280;32708;51.212;6.788;2023-07-13T07:49:37;101069.22;;;27.29;59.87
46955;BME280;32708;51.212;6.788;2023-07-13T07:52:04;101075.56;;;27.80;57.84
46955;BME280;32708;51.212;6.788;2023-07-13T07:54:30;101079.78;;;26.64;60.78
46955;BME280;32708;51.212;6.788;2023-07-13T07:56:57;101072.22;;;26.30;62.67
46955;BME280;32708;51.212;6.788;2023-07-13T07:59:23;101081.59;;;25.71;65.21
46955;BME280;32708;51.212;6.788;2023-07-13T08:01:49;101082.75;;;25.36;67.72
46955;BME280;32708;51.212;6.788;2023-07-13T08:04:16;101084.16;;;25.55;67.00
46955;BME280;32708;51.212;6.788;2023-07-13T08:06:43;101072.94;;;26.34;64.24
46955;BME280;32708;51.212;6.788;2023-07-13T08:09:09;101081.53;;;25.82;66.93
46955;BME280;32708;51.212;6.788;2023-07-13T08:11:35;101080.81;;;25.74;67.10
46955;BME280;32708;51.212;6.788;2023-07-13T08:14:02;101078.88;;;26.05;65.30
46955;BME280;32708;51.212;6.788;2023-07-13T08:16:28;101077.38;;;25.97;65.80
46955;BME280;32708;51.212;6.788;2023-07-13T08:18:54;101074.88;;;26.06;65.76
46955;BME280;32708;51.212;6.788;2023-07-13T08:21:20;101074.38;;;26.80;64.54
46955;BME280;32708;51.212;6.788;2023-07-13T08:23:47;101071.91;;;26.55;65.38
46955;BME280;32708;51.212;6.788;2023-07-13T08:26:13;101066.28;;;26.24;65.30
46955;BME280;32708;51.212;6.788;2023-07-13T08:28:40;101069.16;;;27.09;62.46
46955;BME280;32708;51.212;6.788;2023-07-13T08:31:07;101071.19;;;26.51;64.65
46955;BME280;32708;51.212;6.788;2023-07-13T08:33:36;101065.97;;;26.49;64.18
46955;BME280;32708;51.212;6.788;2023-07-13T08:36:03;101072.22;;;26.60;64.30
46955;BME280;32708;51.212;6.788;2023-07-13T08:38:30;101066.34;;;26.78;63.01
46955;BME280;32708;51.212;6.788;2023-07-13T08:40:57;101064.09;;;27.47;61.01
46955;BME280;32708;51.212;6.788;2023-07-13T08:43:35;101063.16;;;26.49;64.25
46955;BME280;32708;51.212;6.788;2023-07-13T08:49:21;101069.66;;;27.51;60.77
46955;BME280;32708;51.212;6.788;2023-07-13T08:52:05;101057.31;;;28.11;58.99
46955;BME280;32708;51.212;6.788;2023-07-13T08:54:45;101066.22;;;28.26;57.64
46955;BME280;32708;51.212;6.788;2023-07-13T08:57:19;101058.75;;;28.19;58.45
46955;BME280;32708;51.212;6.788;2023-07-13T09:00:10;101060.69;;;28.03;59.06
46955;BME280;32708;51.212;6.788;2023-07-13T09:02:57;101045.47;;;28.20;57.03
46955;BME280;32708;51.212;6.788;2023-07-13T09:05:38;101057.19;;;27.05;61.06
46955;BME280;32708;51.212;6.788;2023-07-13T09:11:04;101072.34;;;26.80;64.19
46955;BME280;32708;51.212;6.788;2023-07-13T09:16:26;101079.16;;;26.52;64.42
46955;BME280;32708;51.212;6.788;2023-07-13T09:19:03;101077.78;;;26.91;62.57
46955;BME280;32708;51.212;6.788;2023-07-13T09:21:37;101079.88;;;26.56;64.11
46955;BME280;32708;51.212;6.788;2023-07-13T09:24:35;101071.53;;;27.34;60.83
46955;BME280;32708;51.212;6.788;2023-07-13T09:27:19;101076.22;;;27.17;61.88
46955;BME280;32708;51.212;6.788;2023-07-13T09:32:50;101068.06;;;26.99;61.49
46955;BME280;32708;51.212;6.788;2023-07-13T09:35:27;101078.84;;;27.28;60.64
46955;BME280;32708;51.212;6.788;2023-07-13T09:38:03;101085.06;;;26.85;62.44
46955;BME280;32708;51.212;6.788;2023-07-13T09:40:59;101080.75;;;27.07;61.99
46955;BME280;32708;51.212;6.788;2023-07-13T09:43:27;101084.03;;;26.11;63.81
46955;BME280;32708;51.212;6.788;2023-07-13T09:45:56;101075.38;;;27.20;60.89
46955;BME280;32708;51.212;6.788;2023-07-13T09:48:22;101080.44;;;27.76;59.42
46955;BME280;32708;51.212;6.788;2023-07-13T09:50:55;101082.91;;;26.96;61.03
46955;BME280;32708;51.212;6.788;2023-07-13T09:53:22;101082.41;;;27.05;61.01
46955;BME280;32708;51.212;6.788;2023-07-13T09:55:49;101082.31;;;27.12;59.15
46955;BME280;32708;51.212;6.788;2023-07-13T09:58:22;101082.03;;;27.03;60.18
46955;BME280;32708;51.212;6.788;2023-07-13T10:01:03;101093.19;;;27.33;58.89
46955;BME280;32708;51.212;6.788;2023-07-13T10:03:34;101088.53;;;27.93;56.21
46955;BME280;32708;51.212;6.788;2023-07-13T10:06:21;101083.72;;;27.47;56.84
46955;BME280;32708;51.212;6.788;2023-07-13T10:08:50;101086.97;;;28.52;54.32
46955;BME280;32708;51.212;6.788;2023-07-13T10:11:27;101091.06;;;28.67;53.52
46955;BME280;32708;51.212;6.788;2023-07-13T10:14:10;101093.84;;;28.67;53.98
46955;BME280;32708;51.212;6.788;2023-07-13T10:16:37;101087.28;;;28.74;53.65
46955;BME280;32708;51.212;6.788;2023-07-13T10:19:12;101092.63;;;28.68;53.27
46955;BME280;32708;51.212;6.788;2023-07-13T10:21:59;101086.03;;;28.59;53.81
46955;BME280;32708;51.212;6.788;2023-07-13T10:24:36;101076.22;;;29.03;52.11
46955;BME280;32708;51.212;6.788;2023-07-13T10:27:18;101089.59;;;28.00;55.00
46955;BME280;32708;51.212;6.788;2023-07-13T10:30:17;101089.16;;;28.81;53.14
46955;BME280;32708;51.212;6.788;2023-07-13T10:32:47;101081.66;;;28.94;52.05
46955;BME280;32708;51.212;6.788;2023-07-13T10:35:18;101092.00;;;28.01;53.42
46955;BME280;32708;51.212;6.788;2023-07-13T10:37:57;101085.25;;;28.58;51.51
46955;BME280;32708;51.212;6.788;2023-07-13T10:40:36;101081.50;;;28.81;51.61
46955;BME280;32708;51.212;6.788;2023-07-13T10:43:16;101099.19;;;28.02;53.16
46955;BME280;32708;51.212;6.788;2023-07-13T10:45:46;101093.34;;;27.93;53.27
46955;BME280;32708;51.212;6.788;2023-07-13T10:48:17;101094.28;;;26.85;56.29
46955;BME280;32708;51.212;6.788;2023-07-13T10:50:49;101102.97;;;27.22;56.24
46955;BME280;32708;51.212;6.788;2023-07-13T10:53:31;101104.06;;;27.98;54.50
46955;BME280;32708;51.212;6.788;2023-07-13T10:56:00;101100.63;;;27.67;55.12
46955;BME280;32708;51.212;6.788;2023-07-13T10:58:42;101102.88;;;27.52;55.40
46955;BME280;32708;51.212;6.788;2023-07-13T11:06:17;101104.06;;;28.77;52.56
46955;BME280;32708;51.212;6.788;2023-07-13T11:08:58;101094.97;;;28.90;50.81
46955;BME280;32708;51.212;6.788;2023-07-13T11:14:00;101084.81;;;29.28;48.55
46955;BME280;32708;51.212;6.788;2023-07-13T11:16:46;101090.09;;;29.26;48.91
46955;BME280;32708;51.212;6.788;2023-07-13T11:25:29;101082.44;;;29.11;49.32
46955;BME280;32708;51.212;6.788;2023-07-13T11:30:43;101071.09;;;28.62;50.43
46955;BME280;32708;51.212;6.788;2023-07-13T11:33:24;101073.56;;;28.60;50.30
46955;BME280;32708;51.212;6.788;2023-07-13T11:36:23;101076.91;;;29.40;47.27
46955;BME280;32708;51.212;6.788;2023-07-13T11:39:02;101066.03;;;29.58;45.94
46955;BME280;32708;51.212;6.788;2023-07-13T11:41:42;101057.59;;;29.87;44.41
46955;BME280;32708;51.212;6.788;2023-07-13T11:44:18;101062.50;;;29.05;47.45
46955;BME280;32708;51.212;6.788;2023-07-13T11:46:52;101061.94;;;29.75;46.08
46955;BME280;32708;51.212;6.788;2023-07-13T11:49:22;101063.38;;;30.25;45.88
46955;BME280;32708;51.212;6.788;2023-07-13T11:51:50;101049.72;;;30.24;44.91
46955;BME280;32708;51.212;6.788;2023-07-13T11:57:28;101047.97;;;30.01;45.59
46955;BME280;32708;51.212;6.788;2023-07-13T11:59:56;101041.72;;;29.64;46.23
46955;BME280;32708;51.212;6.788;2023-07-13T12:02:34;101044.91;;;29.95;44.11
46955;BME280;32708;51.212;6.788;2023-07-13T12:05:05;101045.97;;;29.85;44.58
46955;BME280;32708;51.212;6.788;2023-07-13T12:07:33;101054.19;;;28.65;47.38
46955;BME280;32708;51.212;6.788;2023-07-13T12:10:28;101053.69;;;28.87;47.23
46955;BME280;32708;51.212;6.788;2023-07-13T12:13:05;101043.69;;;29.51;43.81
46955;BME280;32708;51.212;6.788;2023-07-13T12:15:45;101040.53;;;29.16;43.70
46955;BME280;32708;51.212;6.788;2023-07-13T12:18:21;101028.91;;;29.47;42.64
46955;BME280;32708;51.212;6.788;2023-07-13T12:20:51;101035.78;;;30.04;41.56
46955;BME280;32708;51.212;6.788;2023-07-13T12:23:34;101037.19;;;29.38;42.94
46955;BME280;32708;51.212;6.788;2023-07-13T12:26:05;101036.84;;;29.52;43.65
46955;BME280;32708;51.212;6.788;2023-07-13T12:34:13;101035.41;;;29.89;39.00
46955;BME280;32708;51.212;6.788;2023-07-13T12:36:55;101030.44;;;29.80;39.31
46955;BME280;32708;51.212;6.788;2023-07-13T12:39:35;101029.78;;;29.60;39.33
46955;BME280;32708;51.212;6.788;2023-07-13T12:42:30;101034.59;;;30.72;38.19
46955;BME280;32708;51.212;6.788;2023-07-13T12:45:21;101020.00;;;31.25;37.54
46955;BME280;32708;51.212;6.788;2023-07-13T12:47:55;101033.88;;;32.10;35.03
46955;BME280;32708;51.212;6.788;2023-07-13T12:50:36;101022.84;;;30.61;38.22
46955;BME280;32708;51.212;6.788;2023-07-13T12:53:06;101028.00;;;29.66;39.54
46955;BME280;32708;51.212;6.788;2023-07-13T12:55:46;101026.91;;;29.76;39.53
46955;BME280;32708;51.212;6.788;2023-07-13T12:58:39;101024.75;;;29.68;39.39
46955;BME280;32708;51.212;6.788;2023-07-13T13:01:10;101027.69;;;29.77;39.37
46955;BME280;32708;51.212;6.788;2023-07-13T13:03:48;101030.59;;;29.44;40.33
46955;BME280;32708;51.212;6.788;2023-07-13T13:08:53;101032.78;;;29.20;42.00
46955;BME280;32708;51.212;6.788;2023-07-13T13:11:22;101036.19;;;29.60;40.57
46955;BME280;32708;51.212;6.788;2023-07-13T13:13:50;101035.88;;;29.26;41.42
46955;BME280;32708;51.212;6.788;2023-07-13T13:18:46;101033.91;;;29.84;39.85
46955;BME280;32708;51.212;6.788;2023-07-13T13:21:12;101039.31;;;29.01;41.00
46955;BME280;32708;51.212;6.788;2023-07-13T13:23:38;101036.84;;;29.03;40.95
46955;BME280;32708;51.212;6.788;2023-07-13T13:26:15;101031.56;;;29.38;40.47
46955;BME280;32708;51.212;6.788;2023-07-13T13:28:44;101048.78;;;29.56;40.76
46955;BME280;32708;51.212;6.788;2023-07-13T13:31:11;101036.78;;;29.68;40.28
46955;BME280;32708;51.212;6.788;2023-07-13T13:33:45;101036.09;;;29.64;39.85
46955;BME280;32708;51.212;6.788;2023-07-13T13:36:20;101041.66;;;29.35;40.61
46955;BME280;32708;51.212;6.788;2023-07-13T13:38:50;101032.00;;;29.03;41.84
46955;BME280;32708;51.212;6.788;2023-07-13T13:41:17;101039.72;;;29.32;41.85
46955;BME280;32708;51.212;6.788;2023-07-13T13:43:44;101031.34;;;29.90;40.62
46955;BME280;32708;51.212;6.788;2023-07-13T13:46:25;101030.56;;;29.60;40.78
46955;BME280;32708;51.212;6.788;2023-07-13T13:48:52;101044.56;;;30.22;39.69